Time;durP1;ratioP1;P1;durP2;ratioP2;P2;SDS_P1;SDS_P2;PMS_P1;PMS_P2;Temp;Humidity;BMP_temperature;BMP_pressure;BME280_temperature;BME280_humidity;BME280_pressure;Samples;Min_cycle;Max_cycle;Signal;HPM_P1;HPM_P2
2023/07/23 00:00:30;;;;;;;2.55;1.20;;;14.00;99.90;;;;;;4974764;28;20563;-77
2023/07/23 00:02:56;;;;;;;3.45;1.50;;;14.10;99.90;;;;;;4956608;28;20042;-78
2023/07/23 00:05:25;;;;;;;2.38;1.85;;;14.20;99.90;;;;;;4974414;28;20372;-79
2023/07/23 00:07:54;;;;;;;1.40;1.30;;;14.40;99.90;;;;;;4973622;28;20027;-77
2023/07/23 00:10:19;;;;;;;2.45;1.58;;;14.60;99.90;;;;;;4973226;28;20051;-77
2023/07/23 00:12:45;;;;;;;2.00;1.80;;;14.80;99.90;;;;;;4955471;28;20057;-77
2023/07/23 00:15:12;;;;;;;1.77;1.45;;;15.10;99.90;;;;;;4973180;28;20376;-77
2023/07/23 00:17:39;;;;;;;1.85;1.48;;;15.30;99.90;;;;;;4955520;28;20034;-78
2023/07/23 00:20:07;;;;;;;3.05;1.75;;;15.50;99.90;;;;;;4971622;28;20026;-77
2023/07/23 00:22:33;;;;;;;2.15;1.50;;;15.60;99.90;;;;;;4954205;28;20158;-78
2023/07/23 00:24:59;;;;;;;2.85;2.15;;;15.70;99.90;;;;;;4954153;28;20051;-78
2023/07/23 00:27:24;;;;;;;2.00;1.35;;;15.80;99.90;;;;;;4954126;28;20484;-78
2023/07/23 00:29:50;;;;;;;4.22;1.33;;;15.90;99.90;;;;;;4971553;28;20118;-77
2023/07/23 00:32:18;;;;;;;3.17;1.73;;;15.90;99.90;;;;;;4953394;28;20118;-78
2023/07/23 00:34:44;;;;;;;2.60;1.98;;;15.90;99.90;;;;;;4953887;28;20563;-78
2023/07/23 00:37:10;;;;;;;1.80;1.40;;;16.20;99.90;;;;;;4953766;28;20027;-77
2023/07/23 00:39:35;;;;;;;3.90;1.60;;;16.30;99.90;;;;;;4954188;28;20101;-77
2023/07/23 00:42:01;;;;;;;7.80;4.20;;;16.30;99.90;;;;;;4971133;28;20070;-79
2023/07/23 00:44:27;;;;;;;2.95;2.45;;;16.20;99.90;;;;;;4970791;28;20538;-78
2023/07/23 00:46:54;;;;;;;1.90;1.80;;;16.10;99.90;;;;;;4971387;28;20031;-77
2023/07/23 00:49:20;;;;;;;4.35;3.42;;;16.00;99.90;;;;;;4954200;28;20045;-77
2023/07/23 00:51:46;;;;;;;1.58;1.42;;;15.90;99.90;;;;;;4953881;28;20033;-77
2023/07/23 00:54:13;;;;;;;2.45;1.77;;;15.80;99.90;;;;;;4971365;28;20475;-77
2023/07/23 00:56:40;;;;;;;2.30;1.58;;;15.60;99.90;;;;;;4971089;28;20384;-77
2023/07/23 00:59:07;;;;;;;6.05;1.98;;;15.40;99.90;;;;;;4953835;28;20111;-78
2023/07/23 01:01:33;;;;;;;3.35;2.40;;;15.20;99.90;;;;;;4953830;28;20050;-77
2023/07/23 01:03:58;;;;;;;2.05;1.65;;;15.10;99.90;;;;;;4953581;28;20484;-78
2023/07/23 01:06:26;;;;;;;3.95;2.15;;;15.00;99.90;;;;;;4953537;28;20460;-77
2023/07/23 01:08:55;;;;;;;1.55;1.23;;;14.80;99.90;;;;;;4953551;28;20027;-77
2023/07/23 01:11:24;;;;;;;2.10;1.65;;;14.80;99.90;;;;;;4971317;28;20014;-79
2023/07/23 01:13:51;;;;;;;1.75;1.33;;;14.80;99.90;;;;;;4971143;28;20526;-78
2023/07/23 01:16:17;;;;;;;2.05;1.42;;;14.60;99.90;;;;;;4953690;28;20038;-77
2023/07/23 01:18:44;;;;;;;2.83;1.60;;;14.60;99.90;;;;;;4953974;28;20027;-79
2023/07/23 01:21:11;;;;;;;1.60;1.30;;;14.40;99.90;;;;;;4953111;28;20209;-77
2023/07/23 01:23:37;;;;;;;5.70;1.67;;;14.30;99.90;;;;;;4953720;28;20034;-78
2023/07/23 01:26:03;;;;;;;2.83;1.50;;;14.20;99.90;;;;;;4953602;28;20023;-77
2023/07/23 01:28:29;;;;;;;2.47;1.58;;;14.10;99.90;;;;;;4971309;28;20491;-77
2023/07/23 01:30:55;;;;;;;1.52;1.40;;;14.10;99.90;;;;;;4971371;28;20089;-77
2023/07/23 01:33:22;;;;;;;3.17;1.45;;;14.10;99.90;;;;;;4953842;28;20038;-76
2023/07/23 01:35:54;;;;;;;3.33;1.48;;;13.90;99.90;;;;;;4953477;28;20023;-78
2023/07/23 01:38:21;;;;;;;2.97;1.63;;;13.90;99.90;;;;;;4953433;28;20045;-77
2023/07/23 01:40:47;;;;;;;2.70;1.20;;;13.80;99.90;;;;;;4970913;28;20031;-77
2023/07/23 01:43:14;;;;;;;2.58;1.50;;;13.70;99.90;;;;;;4971109;28;20023;-78
2023/07/23 01:45:44;;;;;;;3.08;1.70;;;13.70;99.90;;;;;;4954448;28;20113;-78
2023/07/23 01:48:10;;;;;;;1.30;1.13;;;13.70;99.90;;;;;;4971727;28;20106;-77
2023/07/23 01:50:36;;;;;;;2.85;1.75;;;13.60;99.90;;;;;;4971407;28;20027;-77
2023/07/23 01:53:02;;;;;;;1.65;1.42;;;13.60;99.90;;;;;;4954135;28;20393;-77
2023/07/23 01:55:27;;;;;;;1.65;1.55;;;13.40;99.90;;;;;;4971817;28;20113;-76
2023/07/23 01:57:53;;;;;;;2.08;1.67;;;13.40;99.90;;;;;;4971453;28;20027;-77
2023/07/23 02:00:20;;;;;;;1.60;1.33;;;13.40;99.90;;;;;;4973894;28;20034;-77
2023/07/23 02:02:45;;;;;;;1.85;1.70;;;13.50;99.90;;;;;;4956642;28;20125;-78
2023/07/23 02:05:12;;;;;;;4.22;1.25;;;13.30;99.90;;;;;;4955684;28;20062;-78
2023/07/23 02:07:37;;;;;;;1.50;1.30;;;13.40;99.90;;;;;;4956994;28;20114;-79
2023/07/23 02:10:03;;;;;;;4.35;1.50;;;13.30;99.90;;;;;;4974539;28;20054;-77
2023/07/23 02:12:29;;;;;;;3.15;1.77;;;13.30;99.90;;;;;;4975209;28;20093;-79
2023/07/23 02:14:54;;;;;;;2.72;1.80;;;13.30;99.90;;;;;;4956624;28;20062;-77
2023/07/23 02:17:20;;;;;;;2.58;1.60;;;13.20;99.90;;;;;;4974419;28;20062;-78
2023/07/23 02:19:45;;;;;;;2.67;1.40;;;13.10;99.90;;;;;;4957215;28;20403;-79
2023/07/23 02:22:11;;;;;;;2.42;1.70;;;13.10;99.90;;;;;;4975079;28;20054;-79
2023/07/23 02:24:37;;;;;;;2.47;1.55;;;13.00;99.90;;;;;;4957160;28;20019;-77
2023/07/23 02:27:03;;;;;;;2.33;1.80;;;13.00;99.90;;;;;;4957088;28;20107;-77
2023/07/23 02:29:29;;;;;;;2.25;1.20;;;12.90;99.90;;;;;;4957443;28;20030;-78
2023/07/23 02:31:54;;;;;;;2.45;1.77;;;12.80;99.90;;;;;;4974530;28;20480;-78
2023/07/23 02:34:20;;;;;;;1.48;1.38;;;12.80;99.90;;;;;;4956378;28;20586;-79
2023/07/23 02:36:47;;;;;;;1.70;1.55;;;12.80;99.90;;;;;;4974853;28;20055;-78
2023/07/23 02:39:13;;;;;;;1.60;1.50;;;12.80;99.90;;;;;;4958016;28;20051;-79
2023/07/23 02:41:39;;;;;;;1.45;1.35;;;12.80;99.90;;;;;;4957520;28;20034;-77
2023/07/23 02:44:05;;;;;;;3.03;1.20;;;12.80;99.90;;;;;;4957697;28;20539;-77
2023/07/23 02:46:30;;;;;;;1.67;1.23;;;12.80;99.90;;;;;;4958044;28;20108;-78
2023/07/23 02:48:56;;;;;;;2.50;1.63;;;12.70;99.90;;;;;;4958130;28;20034;-76
2023/07/23 02:51:22;;;;;;;2.33;1.77;;;12.70;99.90;;;;;;4975096;28;20019;-78
2023/07/23 02:53:49;;;;;;;1.42;1.25;;;12.60;99.90;;;;;;4958017;28;20054;-77
2023/07/23 02:56:14;;;;;;;2.72;2.05;;;12.60;99.90;;;;;;4977358;28;20380;-76
2023/07/23 02:58:40;;;;;;;2.55;2.08;;;12.70;99.90;;;;;;4962086;28;20037;-78
2023/07/23 03:01:06;;;;;;;2.40;1.40;;;12.70;99.90;;;;;;4961814;28;20030;-77
2023/07/23 03:03:31;;;;;;;1.50;1.40;;;12.80;99.90;;;;;;4974597;28;20034;-78
2023/07/23 03:05:57;;;;;;;2.33;1.35;;;12.70;99.90;;;;;;4974863;28;20114;-77
2023/07/23 03:08:24;;;;;;;1.45;1.35;;;12.70;99.90;;;;;;4956941;28;20066;-77
2023/07/23 03:10:49;;;;;;;3.80;1.48;;;12.70;99.90;;;;;;4974527;28;20022;-77
2023/07/23 03:13:15;;;;;;;1.65;1.27;;;12.80;99.90;;;;;;4957557;28;20073;-78
2023/07/23 03:15:41;;;;;;;2.88;1.90;;;12.80;99.90;;;;;;4975266;28;20069;-77
2023/07/23 03:18:06;;;;;;;2.17;1.58;;;12.80;99.90;;;;;;4957638;28;20023;-78
2023/07/23 03:20:32;;;;;;;2.05;1.30;;;12.80;99.90;;;;;;4957638;28;20218;-78
2023/07/23 03:22:57;;;;;;;2.60;1.30;;;12.70;99.90;;;;;;4973950;28;20055;-77
2023/07/23 03:25:23;;;;;;;1.70;1.60;;;12.70;99.90;;;;;;4957524;28;20033;-77
2023/07/23 03:27:49;;;;;;;1.55;1.42;;;12.70;99.90;;;;;;4957532;28;20031;-79
2023/07/23 03:30:14;;;;;;;1.60;1.50;;;12.80;99.90;;;;;;4957361;28;20031;-77
2023/07/23 03:32:40;;;;;;;2.92;2.13;;;12.70;99.90;;;;;;4975246;28;20027;-78
2023/07/23 03:35:06;;;;;;;4.15;1.55;;;12.70;99.90;;;;;;4957913;28;20051;-77
2023/07/23 03:37:33;;;;;;;1.58;1.17;;;12.70;99.90;;;;;;4957465;28;20023;-77
2023/07/23 03:39:59;;;;;;;5.55;1.73;;;12.70;99.90;;;;;;4957068;28;20026;-77
2023/07/23 03:42:25;;;;;;;1.45;1.35;;;12.70;99.90;;;;;;4957192;28;20026;-77
2023/07/23 03:44:50;;;;;;;1.45;1.33;;;12.70;99.90;;;;;;4957403;28;20042;-78
2023/07/23 03:47:18;;;;;;;1.58;1.20;;;12.70;99.90;;;;;;4957080;28;20567;-77
2023/07/23 03:49:45;;;;;;;1.35;1.25;;;12.70;99.90;;;;;;4974846;28;20475;-78
2023/07/23 03:52:11;;;;;;;2.38;1.73;;;12.80;99.90;;;;;;4956323;28;20530;-78
2023/07/23 03:54:37;;;;;;;4.30;1.58;;;12.70;99.90;;;;;;4956573;28;20129;-78
2023/07/23 03:57:03;;;;;;;2.25;1.45;;;12.60;99.90;;;;;;4974484;28;20050;-77
2023/07/23 03:59:30;;;;;;;1.67;1.58;;;12.60;99.90;;;;;;4955968;28;20031;-77
2023/07/23 04:01:56;;;;;;;2.00;1.52;;;12.60;99.90;;;;;;4973459;28;20503;-77
2023/07/23 04:04:21;;;;;;;1.98;1.60;;;12.50;99.90;;;;;;4956586;28;20031;-77
2023/07/23 04:06:47;;;;;;;2.63;1.30;;;12.60;99.90;;;;;;4956080;28;20117;-78
2023/07/23 04:09:13;;;;;;;2.03;1.20;;;12.60;99.90;;;;;;4956399;28;20093;-77
2023/07/23 04:11:39;;;;;;;1.42;1.30;;;12.50;99.90;;;;;;4956235;28;20567;-77
2023/07/23 04:14:05;;;;;;;1.58;1.23;;;12.50;99.90;;;;;;4973165;28;20034;-78
2023/07/23 04:16:30;;;;;;;1.67;1.10;;;12.50;99.90;;;;;;4955922;28;20043;-77
2023/07/23 04:18:56;;;;;;;1.83;1.33;;;12.50;99.90;;;;;;4955838;28;20038;-78
2023/07/23 04:21:22;;;;;;;1.33;1.17;;;12.60;99.90;;;;;;4972715;28;20574;-77
2023/07/23 04:23:49;;;;;;;2.50;1.17;;;12.60;99.90;;;;;;4973455;28;20034;-78
2023/07/23 04:26:16;;;;;;;1.40;1.30;;;12.60;99.90;;;;;;4955658;28;20019;-79
2023/07/23 04:28:41;;;;;;;1.27;1.17;;;12.70;99.90;;;;;;4955759;28;20454;-78
2023/07/23 04:31:07;;;;;;;2.60;1.52;;;12.80;99.90;;;;;;4973754;28;20113;-77
2023/07/23 04:33:33;;;;;;;4.40;1.27;;;12.90;99.90;;;;;;4973132;28;20395;-78
2023/07/23 04:35:58;;;;;;;1.85;1.60;;;12.90;99.90;;;;;;4955276;28;20388;-77
2023/07/23 04:38:25;;;;;;;3.55;1.20;;;13.00;99.90;;;;;;4954644;28;20034;-78
2023/07/23 04:40:51;;;;;;;3.25;1.40;;;13.20;99.90;;;;;;4954783;28;20031;-78
2023/07/23 04:43:16;;;;;;;2.05;1.20;;;13.50;99.90;;;;;;4954860;28;20037;-78
2023/07/23 04:45:42;;;;;;;1.35;1.25;;;13.90;99.90;;;;;;4954322;28;20432;-78
2023/07/23 04:48:10;;;;;;;1.85;1.25;;;14.10;99.90;;;;;;4954287;28;20058;-78
2023/07/23 04:50:36;;;;;;;1.50;1.35;;;14.20;99.90;;;;;;4954114;28;20117;-78
2023/07/23 04:53:02;;;;;;;1.27;1.25;;;14.30;99.90;;;;;;4970788;28;20106;-78
2023/07/23 04:55:27;;;;;;;1.77;1.25;;;14.40;99.90;;;;;;4954011;28;20042;-77
2023/07/23 04:57:53;;;;;;;1.75;1.30;;;14.80;99.90;;;;;;4970845;28;20062;-78
2023/07/23 05:00:19;;;;;;;2.80;1.48;;;15.00;99.90;;;;;;4953694;28;20018;-77
2023/07/23 05:02:45;;;;;;;4.65;1.55;;;15.30;99.90;;;;;;4953941;28;20031;-77
2023/07/23 05:05:10;;;;;;;1.60;1.50;;;15.50;99.90;;;;;;4970974;28;20284;-77
2023/07/23 05:07:36;;;;;;;0.90;0.90;;;15.80;99.90;;;;;;4953425;28;20030;-77
2023/07/23 05:10:02;;;;;;;1.85;1.08;;;15.90;99.90;;;;;;4953748;28;20051;-77
2023/07/23 05:12:28;;;;;;;1.20;1.10;;;16.00;99.90;;;;;;4971111;28;20031;-77
2023/07/23 05:15:12;;;;;;;1.60;1.50;;;16.10;99.90;;;;;;4953054;28;20111;-77
2023/07/23 05:17:38;;;;;;;1.20;0.95;;;16.20;99.90;;;;;;4952989;28;20033;-78
2023/07/23 05:20:06;;;;;;;2.83;1.63;;;16.30;99.90;;;;;;4970313;28;20037;-78
2023/07/23 05:22:32;;;;;;;1.23;0.90;;;16.30;99.90;;;;;;4952978;28;20047;-77
2023/07/23 05:24:58;;;;;;;1.23;1.13;;;16.40;99.90;;;;;;4953259;28;20023;-77
2023/07/23 05:27:23;;;;;;;1.63;1.13;;;16.60;99.90;;;;;;4971287;28;20027;-77
2023/07/23 05:29:49;;;;;;;3.90;1.80;;;16.70;99.90;;;;;;4970834;28;20361;-78
2023/07/23 05:32:14;;;;;;;1.88;1.70;;;16.80;99.90;;;;;;4953429;28;20031;-77
2023/07/23 05:34:40;;;;;;;1.42;1.33;;;16.80;99.90;;;;;;4952959;28;20042;-77
2023/07/23 05:37:06;;;;;;;1.10;1.05;;;16.90;99.90;;;;;;4953174;28;20484;-77
2023/07/23 05:39:31;;;;;;;1.20;1.10;;;17.20;99.90;;;;;;4953494;28;20058;-77
2023/07/23 05:41:57;;;;;;;4.40;1.50;;;17.30;99.90;;;;;;4953180;28;20031;-77
2023/07/23 05:44:25;;;;;;;1.08;1.00;;;17.40;99.90;;;;;;4953146;28;20023;-77
2023/07/23 05:46:50;;;;;;;1.05;0.95;;;17.60;99.90;;;;;;4953221;28;20407;-78
2023/07/23 05:49:16;;;;;;;1.65;1.30;;;17.90;99.90;;;;;;4970245;28;20031;-77
2023/07/23 05:51:42;;;;;;;1.63;1.15;;;18.10;99.90;;;;;;4952607;28;20082;-78
2023/07/23 05:54:07;;;;;;;1.45;1.10;;;18.20;99.90;;;;;;4952804;28;20105;-77
2023/07/23 05:56:33;;;;;;;2.13;1.42;;;18.20;99.90;;;;;;4952902;28;20033;-77
2023/07/23 05:58:59;;;;;;;1.05;1.00;;;18.30;99.90;;;;;;4952759;28;20054;-77
2023/07/23 06:01:25;;;;;;;1.45;1.08;;;18.50;99.90;;;;;;4970360;28;20042;-78
2023/07/23 06:03:50;;;;;;;1.90;0.90;;;18.70;99.90;;;;;;4970240;28;20034;-78
2023/07/23 06:06:16;;;;;;;3.63;0.95;;;18.80;99.90;;;;;;4952399;28;20045;-78
2023/07/23 06:08:42;;;;;;;2.92;1.10;;;18.80;99.90;;;;;;4952489;28;20522;-78
2023/07/23 06:11:07;;;;;;;1.23;1.00;;;18.60;99.90;;;;;;4952660;28;20130;-78
2023/07/23 06:13:33;;;;;;;2.97;1.98;;;18.30;99.90;;;;;;4970032;28;20038;-77
2023/07/23 06:15:59;;;;;;;1.15;1.05;;;18.40;99.90;;;;;;4952741;28;20023;-77
2023/07/23 06:18:24;;;;;;;4.72;2.25;;;18.50;99.90;;;;;;4952791;28;20031;-77
2023/07/23 06:20:50;;;;;;;2.00;1.00;;;18.70;99.90;;;;;;4952866;28;20027;-78
2023/07/23 06:23:15;;;;;;;1.17;1.10;;;18.80;99.90;;;;;;4952469;28;20050;-77
2023/07/23 06:25:41;;;;;;;5.00;1.27;;;19.00;99.90;;;;;;4952701;28;20035;-77
2023/07/23 06:28:07;;;;;;;3.25;1.63;;;19.10;99.90;;;;;;4969982;28;20034;-77
2023/07/23 06:30:35;;;;;;;1.15;1.00;;;18.90;99.90;;;;;;4972501;28;20106;-77
2023/07/23 06:33:01;;;;;;;1.17;0.90;;;18.70;99.90;;;;;;4956071;28;20401;-77
2023/07/23 06:35:26;;;;;;;1.80;1.30;;;18.60;99.90;;;;;;4973710;28;20027;-77
2023/07/23 06:37:52;;;;;;;2.83;1.20;;;18.60;99.90;;;;;;4955692;28;20487;-78
2023/07/23 06:40:18;;;;;;;1.55;1.30;;;18.70;99.90;;;;;;4973818;28;20081;-78
2023/07/23 06:42:44;;;;;;;1.40;1.30;;;19.00;99.90;;;;;;4973495;28;20752;-77
2023/07/23 06:45:10;;;;;;;3.53;1.02;;;19.10;99.90;;;;;;4973310;28;20037;-78
2023/07/23 06:47:38;;;;;;;1.50;1.25;;;19.50;99.90;;;;;;4956092;28;20034;-78
2023/07/23 06:50:04;;;;;;;2.92;1.90;;;19.80;99.90;;;;;;4973692;28;20483;-77
2023/07/23 06:52:30;;;;;;;1.75;1.15;;;20.10;99.90;;;;;;4957505;28;20026;-77
2023/07/23 06:54:55;;;;;;;1.67;1.58;;;20.30;99.90;;;;;;4975177;28;20090;-77
2023/07/23 06:57:21;;;;;;;3.13;1.63;;;20.20;99.90;;;;;;4956563;28;20026;-77
2023/07/23 06:59:48;;;;;;;3.53;1.73;;;20.20;99.90;;;;;;4955915;28;20152;-78
2023/07/23 07:02:14;;;;;;;2.60;1.92;;;20.40;99.90;;;;;;4955579;28;20078;-78
2023/07/23 07:04:40;;;;;;;2.22;1.33;;;21.20;99.90;;;;;;4973611;28;20043;-78
2023/07/23 07:07:06;;;;;;;3.15;1.70;;;23.40;99.90;;;;;;4955192;28;20031;-78
2023/07/23 07:09:31;;;;;;;1.58;1.23;;;25.60;95.60;;;;;;4955390;28;20506;-78
2023/07/23 07:11:57;;;;;;;2.40;1.10;;;27.20;84.80;;;;;;4972908;28;20031;-79
2023/07/23 07:14:23;;;;;;;1.85;1.05;;;28.50;75.40;;;;;;4972569;28;20523;-78
2023/07/23 07:16:48;;;;;;;2.30;1.38;;;28.60;72.10;;;;;;4955554;28;20038;-78
2023/07/23 07:19:14;;;;;;;2.85;1.42;;;28.20;70.50;;;;;;4955605;28;20500;-78
2023/07/23 07:21:40;;;;;;;1.88;1.08;;;27.90;70.80;;;;;;4955047;28;20042;-78
2023/07/23 07:24:06;;;;;;;1.45;1.10;;;27.90;68.60;;;;;;4955192;28;20061;-78
2023/07/23 07:26:32;;;;;;;1.40;1.30;;;27.60;71.20;;;;;;4972911;28;20030;-78
2023/07/23 07:28:58;;;;;;;0.93;0.93;;;27.70;71.10;;;;;;4955223;28;20027;-77
2023/07/23 07:31:24;;;;;;;1.15;1.02;;;27.30;67.00;;;;;;4955477;28;20440;-78
2023/07/23 07:33:50;;;;;;;0.85;0.80;;;27.20;65.60;;;;;;4955235;28;20083;-78
2023/07/23 07:36:17;;;;;;;1.05;0.95;;;27.20;67.70;;;;;;4971971;28;20067;-78
2023/07/23 07:38:43;;;;;;;1.55;0.80;;;27.00;66.90;;;;;;4972568;28;20062;-78
2023/07/23 07:41:09;;;;;;;1.65;0.88;;;26.30;68.50;;;;;;4954716;28;20493;-78
2023/07/23 07:43:35;;;;;;;1.30;1.05;;;25.60;68.10;;;;;;4972414;28;20025;-77
2023/07/23 07:46:03;;;;;;;2.10;1.10;;;25.70;68.90;;;;;;4954908;28;20370;-77
2023/07/23 07:48:31;;;;;;;1.73;1.27;;;25.10;70.70;;;;;;4955249;28;20034;-78
2023/07/23 07:51:03;;;;;;;2.27;1.30;;;24.90;70.10;;;;;;4972181;28;20050;-78
2023/07/23 07:53:29;;;;;;;2.05;1.20;;;25.00;70.00;;;;;;4954896;28;20306;-78
2023/07/23 07:55:58;;;;;;;2.78;1.08;;;25.30;70.10;;;;;;4954936;28;20027;-78
2023/07/23 07:58:25;;;;;;;0.95;0.95;;;25.60;68.10;;;;;;4954743;28;20344;-78
2023/07/23 08:00:52;;;;;;;1.42;1.10;;;25.60;69.50;;;;;;4954625;28;20451;-78
2023/07/23 08:03:18;;;;;;;1.17;1.00;;;25.90;70.10;;;;;;4972021;28;20026;-78
2023/07/23 08:05:44;;;;;;;1.35;1.25;;;25.50;68.10;;;;;;4972320;28;20472;-78
2023/07/23 08:08:13;;;;;;;1.70;1.10;;;25.30;69.00;;;;;;4954278;28;20094;-77
2023/07/23 08:10:39;;;;;;;1.50;1.25;;;24.70;70.50;;;;;;4954659;28;20494;-78
2023/07/23 08:13:05;;;;;;;1.27;1.17;;;24.60;72.30;;;;;;4954502;28;20041;-78
2023/07/23 08:15:32;;;;;;;2.38;1.00;;;24.60;72.00;;;;;;4971805;28;20027;-78
2023/07/23 08:17:59;;;;;;;1.67;1.10;;;24.50;70.50;;;;;;4971527;28;20411;-78
2023/07/23 08:20:27;;;;;;;4.03;0.90;;;24.50;70.70;;;;;;4954332;28;20034;-78
2023/07/23 08:22:53;;;;;;;1.20;0.90;;;24.30;70.70;;;;;;4953813;28;20114;-78
2023/07/23 08:25:19;;;;;;;1.23;1.15;;;24.60;70.40;;;;;;4954223;28;20015;-77
2023/07/23 08:27:49;;;;;;;4.25;1.20;;;24.80;71.10;;;;;;4971164;28;20037;-78
2023/07/23 08:30:15;;;;;;;1.95;0.90;;;25.30;71.20;;;;;;4954007;28;20023;-78
2023/07/23 08:32:42;;;;;;;1.10;1.00;;;25.80;70.00;;;;;;4953925;28;20035;-78
2023/07/23 08:35:11;;;;;;;2.15;1.25;;;25.80;69.30;;;;;;4953930;28;20262;-78
2023/07/23 08:37:37;;;;;;;1.00;0.90;;;25.50;70.10;;;;;;4971090;28;20027;-78
2023/07/23 08:40:03;;;;;;;2.70;0.90;;;25.40;68.80;;;;;;4971270;28;20038;-78
2023/07/23 08:42:54;;;;;;;1.05;1.00;;;25.60;69.20;;;;;;4971539;28;20026;-78
2023/07/23 08:45:42;;;;;;;5.20;1.30;;;25.80;69.40;;;;;;4941681;28;20058;-78
2023/07/23 08:48:18;;;;;;;2.85;1.20;;;26.00;68.00;;;;;;4954041;28;20398;-78
2023/07/23 08:50:48;;;;;;;0.90;0.80;;;26.20;67.70;;;;;;4971281;28;20029;-79
2023/07/23 08:53:16;;;;;;;1.58;1.20;;;25.80;66.90;;;;;;4949950;28;20038;-78
2023/07/23 08:55:44;;;;;;;1.55;0.95;;;25.50;68.00;;;;;;4971323;28;20521;-78
2023/07/23 08:58:14;;;;;;;2.77;1.00;;;25.40;68.90;;;;;;4953911;28;20030;-78
2023/07/23 09:00:42;;;;;;;1.48;1.15;;;25.30;68.10;;;;;;4953616;28;20285;-78
2023/07/23 09:03:10;;;;;;;1.23;1.13;;;25.30;68.30;;;;;;4953811;28;20122;-78
2023/07/23 09:05:36;;;;;;;1.67;1.40;;;25.20;69.20;;;;;;4953606;28;20093;-78
2023/07/23 09:08:02;;;;;;;0.73;0.73;;;25.20;68.70;;;;;;4953297;28;20475;-78
2023/07/23 09:10:28;;;;;;;1.40;1.30;;;25.30;69.50;;;;;;4970684;28;20452;-78
2023/07/23 09:12:54;;;;;;;1.23;0.93;;;25.80;68.30;;;;;;4971149;28;20106;-78
2023/07/23 09:15:19;;;;;;;1.60;1.10;;;26.80;67.00;;;;;;4953556;28;20504;-78
2023/07/23 09:17:49;;;;;;;1.83;0.90;;;27.60;63.80;;;;;;4971013;28;20111;-78
2023/07/23 09:20:19;;;;;;;2.63;1.30;;;27.60;63.80;;;;;;4970568;28;20027;-78
2023/07/23 09:22:46;;;;;;;1.42;1.23;;;27.20;63.20;;;;;;4952937;28;20049;-78
2023/07/23 09:25:12;;;;;;;2.15;1.58;;;26.50;64.50;;;;;;4970591;28;20102;-79
2023/07/23 09:27:42;;;;;;;0.75;0.75;;;26.70;65.20;;;;;;4953161;28;20097;-77
2023/07/23 09:30:15;;;;;;;1.20;1.20;;;26.40;65.70;;;;;;4953228;28;20408;-78
2023/07/23 09:32:41;;;;;;;3.45;2.03;;;26.50;65.00;;;;;;4953208;28;20395;-78
2023/07/23 09:35:07;;;;;;;1.60;1.38;;;27.10;64.40;;;;;;4953080;28;20035;-78
2023/07/23 09:37:33;;;;;;;1.30;1.20;;;27.10;63.60;;;;;;4952830;28;20027;-78
2023/07/23 09:39:59;;;;;;;1.80;1.17;;;27.00;63.10;;;;;;4953370;28;20023;-78
2023/07/23 09:42:25;;;;;;;1.23;1.15;;;27.60;62.30;;;;;;4970462;28;20026;-78
2023/07/23 09:44:51;;;;;;;1.10;1.00;;;27.70;62.40;;;;;;4970357;28;20546;-78
2023/07/23 09:47:24;;;;;;;2.20;1.00;;;27.50;62.70;;;;;;4952913;28;20054;-78
2023/07/23 09:49:53;;;;;;;1.27;1.00;;;27.20;62.60;;;;;;4952727;28;20385;-78
2023/07/23 09:52:23;;;;;;;1.45;1.10;;;27.20;61.50;;;;;;4952435;28;20520;-77
2023/07/23 09:54:51;;;;;;;2.97;1.17;;;27.60;62.30;;;;;;4952857;28;20039;-78
2023/07/23 09:57:18;;;;;;;3.33;1.35;;;27.80;61.40;;;;;;4953118;28;20030;-78
2023/07/23 09:59:46;;;;;;;1.63;1.40;;;27.80;60.00;;;;;;4970181;28;20452;-78
2023/07/23 10:02:12;;;;;;;1.60;1.15;;;27.90;63.20;;;;;;4952943;28;20101;-78
2023/07/23 10:04:38;;;;;;;2.53;1.20;;;27.90;61.60;;;;;;4953993;28;20416;-78
2023/07/23 10:07:05;;;;;;;1.92;1.10;;;28.10;60.10;;;;;;4956297;28;20023;-78
2023/07/23 10:09:32;;;;;;;1.15;1.05;;;28.60;62.50;;;;;;4956854;28;20041;-78
2023/07/23 10:11:57;;;;;;;1.42;1.20;;;29.10;59.40;;;;;;4956754;28;20015;-78
2023/07/23 10:14:23;;;;;;;1.50;1.02;;;28.90;59.10;;;;;;4956818;28;20058;-78
2023/07/23 10:16:51;;;;;;;1.90;1.50;;;28.50;58.20;;;;;;4956769;28;20086;-78
2023/07/23 10:19:19;;;;;;;1.58;0.85;;;28.40;59.40;;;;;;4956620;28;20104;-78
2023/07/23 10:21:51;;;;;;;1.40;1.10;;;28.60;61.20;;;;;;4956045;28;20190;-78
2023/07/23 10:24:16;;;;;;;2.35;1.45;;;29.20;59.70;;;;;;4956368;28;20467;-78
2023/07/23 10:26:47;;;;;;;1.45;1.25;;;29.40;58.90;;;;;;4973800;28;20055;-78
2023/07/23 10:29:15;;;;;;;6.00;1.90;;;29.20;57.60;;;;;;4956402;28;20073;-79
2023/07/23 10:31:42;;;;;;;1.95;1.50;;;29.10;56.60;;;;;;4973933;28;20098;-79
2023/07/23 10:34:25;;;;;;;2.58;1.60;;;29.20;56.10;;;;;;4956395;28;20043;-78
2023/07/23 10:37:10;;;;;;;2.22;1.42;;;28.90;56.90;;;;;;4973407;28;20022;-78
2023/07/23 10:39:47;;;;;;;3.47;2.10;;;28.40;55.70;;;;;;4956237;28;20023;-78
2023/07/23 10:42:28;;;;;;;2.38;1.65;;;28.10;56.80;;;;;;4953211;28;20487;-78
2023/07/23 10:45:22;;;;;;;3.17;1.60;;;28.00;57.70;;;;;;4956036;28;20027;-78
2023/07/23 10:47:49;;;;;;;3.13;1.58;;;28.40;57.40;;;;;;4973632;28;20027;-78
2023/07/23 10:50:16;;;;;;;5.45;1.60;;;28.50;55.60;;;;;;4956213;28;20399;-78
2023/07/23 10:52:50;;;;;;;2.55;1.40;;;28.80;56.20;;;;;;4973335;28;20027;-78
2023/07/23 10:55:34;;;;;;;4.63;1.73;;;29.50;54.60;;;;;;4955907;28;20464;-79
2023/07/23 10:58:02;;;;;;;2.92;2.58;;;29.70;55.90;;;;;;4973248;28;20376;-79
2023/07/23 11:00:30;;;;;;;2.03;1.45;;;29.50;55.20;;;;;;4955873;28;20142;-78
2023/07/23 11:02:56;;;;;;;2.63;1.63;;;30.20;56.60;;;;;;4955847;28;20061;-78
2023/07/23 11:05:22;;;;;;;2.17;1.73;;;30.70;53.60;;;;;;4955974;28;20037;-78
2023/07/23 11:08:20;;;;;;;4.10;2.00;;;31.20;55.80;;;;;;4955639;28;20109;-80
2023/07/23 11:11:07;;;;;;;2.33;1.80;;;31.30;53.70;;;;;;4973401;28;20031;-78
2023/07/23 11:13:34;;;;;;;2.50;1.90;;;31.70;52.00;;;;;;4972830;28;20031;-78
2023/07/23 11:16:01;;;;;;;2.72;1.80;;;30.60;52.50;;;;;;4971912;28;20075;-78
2023/07/23 11:18:32;;;;;;;3.63;1.73;;;30.10;53.40;;;;;;4972912;28;20086;-79
2023/07/23 11:20:59;;;;;;;2.88;1.83;;;29.90;54.40;;;;;;4972157;28;20039;-79
2023/07/23 11:23:26;;;;;;;1.55;1.45;;;30.30;56.00;;;;;;4973101;28;20444;-79
2023/07/23 11:25:51;;;;;;;2.45;1.80;;;30.30;57.20;;;;;;4972942;28;20391;-79
2023/07/23 11:28:19;;;;;;;1.23;1.10;;;30.60;58.40;;;;;;4955412;28;20031;-78
2023/07/23 11:30:48;;;;;;;1.67;1.10;;;29.90;58.90;;;;;;4972775;28;20119;-78
2023/07/23 11:33:13;;;;;;;2.05;1.35;;;29.50;58.90;;;;;;4972404;28;20031;-78
2023/07/23 11:35:39;;;;;;;4.65;2.53;;;29.50;56.90;;;;;;4972300;28;20106;-78
2023/07/23 11:38:05;;;;;;;1.95;1.52;;;29.90;57.20;;;;;;4972543;28;20042;-78
2023/07/23 11:40:31;;;;;;;1.00;0.90;;;30.20;56.50;;;;;;4972787;28;20031;-79
2023/07/23 11:43:04;;;;;;;1.65;1.23;;;31.00;56.40;;;;;;4973007;28;20027;-78
2023/07/23 11:45:29;;;;;;;1.88;1.58;;;31.30;58.70;;;;;;4972719;28;20092;-79
2023/07/23 11:47:55;;;;;;;1.30;1.05;;;31.20;55.90;;;;;;4972348;28;20020;-80
2023/07/23 11:50:22;;;;;;;1.45;1.10;;;31.50;56.80;;;;;;4972743;28;20384;-79
2023/07/23 11:52:50;;;;;;;1.80;1.27;;;31.70;56.10;;;;;;4971745;28;20034;-78
2023/07/23 11:55:26;;;;;;;1.23;1.23;;;31.90;57.10;;;;;;4972151;28;20038;-78
2023/07/23 11:57:56;;;;;;;3.05;1.75;;;30.90;55.00;;;;;;4954772;28;20398;-78
2023/07/23 12:00:35;;;;;;;1.63;1.50;;;31.80;55.10;;;;;;4954842;28;20070;-79
2023/07/23 12:03:05;;;;;;;4.32;1.20;;;32.30;58.60;;;;;;4972410;28;20073;-79
2023/07/23 12:05:31;;;;;;;2.13;1.27;;;31.30;55.90;;;;;;4972197;28;20058;-78
2023/07/23 12:07:56;;;;;;;1.60;1.30;;;31.40;57.70;;;;;;4974420;28;20027;-78
2023/07/23 12:10:25;;;;;;;2.88;2.03;;;31.20;55.00;;;;;;4972014;28;20045;-78
2023/07/23 12:12:51;;;;;;;2.63;1.77;;;31.90;54.60;;;;;;4954212;28;20027;-78
2023/07/23 12:15:17;;;;;;;3.15;1.80;;;31.70;54.40;;;;;;4971648;28;20557;-79
2023/07/23 12:17:45;;;;;;;2.22;1.27;;;31.80;56.60;;;;;;4954800;28;20027;-78
2023/07/23 12:20:16;;;;;;;1.38;1.27;;;31.90;54.70;;;;;;4955843;28;20108;-78
2023/07/23 12:22:56;;;;;;;1.80;1.40;;;31.40;58.10;;;;;;4977378;28;20035;-79
2023/07/23 12:25:23;;;;;;;4.25;1.92;;;30.60;56.00;;;;;;4979181;28;20023;-79
2023/07/23 12:27:50;;;;;;;2.30;1.70;;;31.30;57.20;;;;;;4954110;28;20031;-78
2023/07/23 12:30:17;;;;;;;1.23;1.13;;;29.80;56.60;;;;;;4954269;28;20479;-78
2023/07/23 12:32:45;;;;;;;1.90;1.55;;;29.80;57.20;;;;;;4953991;28;20030;-78
2023/07/23 12:35:11;;;;;;;2.00;1.70;;;29.80;57.40;;;;;;4971589;28;20141;-78
2023/07/23 12:37:36;;;;;;;1.55;1.30;;;29.20;59.90;;;;;;4953770;28;20063;-79
2023/07/23 12:40:04;;;;;;;1.98;1.33;;;29.20;60.90;;;;;;4953835;28;20507;-78
2023/07/23 12:42:33;;;;;;;2.72;2.00;;;29.20;61.20;;;;;;4954040;28;20023;-78
2023/07/23 12:44:59;;;;;;;;;;;28.60;60.00;;;;;;4954495;28;20081;-78
2023/07/23 12:47:26;;;;;;;2.08;1.70;;;28.50;60.60;;;;;;4953664;28;20363;-78